sensor_id;sensor_type;location;lat;lon;timestamp;P1;durP1;ratioP1;P2;durP2;ratioP2
47289;SDS011;33197;52.524;13.444;2023-05-13T00:01:50;9.75;;;3.70;;
47289;SDS011;33197;52.524;13.444;2023-05-13T00:04:17;10.80;;;3.38;;
47289;SDS011;33197;52.524;13.444;2023-05-13T00:06:44;8.63;;;2.70;;
47289;SDS011;33197;52.524;13.444;2023-05-13T00:09:11;15.68;;;3.72;;
47289;SDS011;33197;52.524;13.444;2023-05-13T00:11:38;8.50;;;3.15;;
47289;SDS011;33197;52.524;13.444;2023-05-13T00:16:55;11.40;;;3.10;;
47289;SDS011;33197;52.524;13.444;2023-05-13T00:19:24;9.98;;;3.25;;
47289;SDS011;33197;52.524;13.444;2023-05-13T00:21:51;7.40;;;3.28;;
47289;SDS011;33197;52.524;13.444;2023-05-13T00:24:19;8.00;;;3.55;;
47289;SDS011;33197;52.524;13.444;2023-05-13T00:26:46;10.65;;;3.13;;
47289;SDS011;33197;52.524;13.444;2023-05-13T00:29:13;9.63;;;3.17;;
47289;SDS011;33197;52.524;13.444;2023-05-13T00:31:41;10.45;;;3.67;;
47289;SDS011;33197;52.524;13.444;2023-05-13T00:34:08;8.07;;;3.38;;
47289;SDS011;33197;52.524;13.444;2023-05-13T00:39:59;9.63;;;3.45;;
47289;SDS011;33197;52.524;13.444;2023-05-13T00:42:26;12.50;;;4.13;;
47289;SDS011;33197;52.524;13.444;2023-05-13T00:44:53;7.40;;;3.08;;
47289;SDS011;33197;52.524;13.444;2023-05-13T00:47:21;12.90;;;3.20;;
47289;SDS011;33197;52.524;13.444;2023-05-13T00:49:48;5.82;;;3.22;;
47289;SDS011;33197;52.524;13.444;2023-05-13T00:52:15;10.60;;;3.30;;
47289;SDS011;33197;52.524;13.444;2023-05-13T01:02:44;9.07;;;3.10;;
47289;SDS011;33197;52.524;13.444;2023-05-13T01:10:46;6.00;;;3.40;;
47289;SDS011;33197;52.524;13.444;2023-05-13T01:13:22;5.60;;;3.70;;
47289;SDS011;33197;52.524;13.444;2023-05-13T01:16:14;12.23;;;3.30;;
47289;SDS011;33197;52.524;13.444;2023-05-13T01:18:51;8.50;;;3.60;;
47289;SDS011;33197;52.524;13.444;2023-05-13T01:21:29;11.15;;;4.20;;
47289;SDS011;33197;52.524;13.444;2023-05-13T01:24:01;8.23;;;3.45;;
47289;SDS011;33197;52.524;13.444;2023-05-13T01:26:29;8.13;;;3.53;;
47289;SDS011;33197;52.524;13.444;2023-05-13T01:28:56;8.90;;;3.45;;
47289;SDS011;33197;52.524;13.444;2023-05-13T01:31:23;13.35;;;3.63;;
47289;SDS011;33197;52.524;13.444;2023-05-13T01:33:51;9.32;;;3.85;;
47289;SDS011;33197;52.524;13.444;2023-05-13T01:36:19;6.43;;;3.50;;
47289;SDS011;33197;52.524;13.444;2023-05-13T01:38:46;11.63;;;3.67;;
47289;SDS011;33197;52.524;13.444;2023-05-13T01:41:14;10.32;;;4.30;;
47289;SDS011;33197;52.524;13.444;2023-05-13T01:43:42;6.63;;;4.07;;
47289;SDS011;33197;52.524;13.444;2023-05-13T01:46:12;8.80;;;3.70;;
47289;SDS011;33197;52.524;13.444;2023-05-13T01:48:39;8.32;;;3.60;;
47289;SDS011;33197;52.524;13.444;2023-05-13T01:51:06;9.75;;;3.55;;
47289;SDS011;33197;52.524;13.444;2023-05-13T01:53:35;8.95;;;3.92;;
47289;SDS011;33197;52.524;13.444;2023-05-13T01:56:02;7.45;;;3.75;;
47289;SDS011;33197;52.524;13.444;2023-05-13T01:58:29;10.93;;;3.83;;
47289;SDS011;33197;52.524;13.444;2023-05-13T02:00:56;7.30;;;4.03;;
47289;SDS011;33197;52.524;13.444;2023-05-13T02:03:24;8.52;;;3.75;;
47289;SDS011;33197;52.524;13.444;2023-05-13T02:05:51;10.77;;;3.90;;
47289;SDS011;33197;52.524;13.444;2023-05-13T02:08:19;9.90;;;3.40;;
47289;SDS011;33197;52.524;13.444;2023-05-13T02:10:57;11.95;;;3.85;;
47289;SDS011;33197;52.524;13.444;2023-05-13T02:13:25;9.20;;;3.75;;
47289;SDS011;33197;52.524;13.444;2023-05-13T02:15:52;13.90;;;3.90;;
47289;SDS011;33197;52.524;13.444;2023-05-13T02:18:48;7.32;;;4.13;;
47289;SDS011;33197;52.524;13.444;2023-05-13T02:21:16;5.93;;;3.90;;
47289;SDS011;33197;52.524;13.444;2023-05-13T02:23:43;8.13;;;3.83;;
47289;SDS011;33197;52.524;13.444;2023-05-13T02:26:10;6.85;;;3.50;;
47289;SDS011;33197;52.524;13.444;2023-05-13T02:28:37;11.48;;;4.15;;
47289;SDS011;33197;52.524;13.444;2023-05-13T02:31:05;9.65;;;3.83;;
47289;SDS011;33197;52.524;13.444;2023-05-13T02:33:32;7.30;;;3.70;;
47289;SDS011;33197;52.524;13.444;2023-05-13T02:35:59;7.43;;;4.13;;
47289;SDS011;33197;52.524;13.444;2023-05-13T02:38:27;10.48;;;4.25;;
47289;SDS011;33197;52.524;13.444;2023-05-13T02:40:54;7.97;;;3.90;;
47289;SDS011;33197;52.524;13.444;2023-05-13T02:43:21;7.75;;;3.47;;
47289;SDS011;33197;52.524;13.444;2023-05-13T02:45:50;13.30;;;4.15;;
47289;SDS011;33197;52.524;13.444;2023-05-13T02:48:18;15.18;;;4.68;;
47289;SDS011;33197;52.524;13.444;2023-05-13T02:50:45;8.40;;;3.67;;
47289;SDS011;33197;52.524;13.444;2023-05-13T02:53:12;7.68;;;3.90;;
47289;SDS011;33197;52.524;13.444;2023-05-13T02:55:40;7.93;;;4.28;;
47289;SDS011;33197;52.524;13.444;2023-05-13T02:58:07;22.58;;;4.70;;
47289;SDS011;33197;52.524;13.444;2023-05-13T03:00:35;8.73;;;4.60;;
47289;SDS011;33197;52.524;13.444;2023-05-13T03:03:02;9.93;;;4.55;;
47289;SDS011;33197;52.524;13.444;2023-05-13T03:05:30;7.57;;;4.03;;
47289;SDS011;33197;52.524;13.444;2023-05-13T03:07:57;7.70;;;4.13;;
47289;SDS011;33197;52.524;13.444;2023-05-13T03:10:24;10.82;;;4.25;;
47289;SDS011;33197;52.524;13.444;2023-05-13T03:12:51;8.45;;;4.28;;
47289;SDS011;33197;52.524;13.444;2023-05-13T03:15:31;4.57;;;3.55;;
47289;SDS011;33197;52.524;13.444;2023-05-13T03:17:58;9.93;;;3.90;;
47289;SDS011;33197;52.524;13.444;2023-05-13T03:20:26;9.27;;;4.13;;
47289;SDS011;33197;52.524;13.444;2023-05-13T03:22:53;8.82;;;3.85;;
47289;SDS011;33197;52.524;13.444;2023-05-13T03:25:21;16.13;;;4.63;;
47289;SDS011;33197;52.524;13.444;2023-05-13T03:27:48;9.05;;;3.78;;
47289;SDS011;33197;52.524;13.444;2023-05-13T03:30:15;13.20;;;4.32;;
47289;SDS011;33197;52.524;13.444;2023-05-13T03:32:42;8.48;;;4.07;;
47289;SDS011;33197;52.524;13.444;2023-05-13T03:35:09;5.45;;;3.30;;
47289;SDS011;33197;52.524;13.444;2023-05-13T03:37:37;8.80;;;3.75;;
47289;SDS011;33197;52.524;13.444;2023-05-13T03:40:04;8.73;;;5.05;;
47289;SDS011;33197;52.524;13.444;2023-05-13T03:42:32;23.00;;;4.45;;
47289;SDS011;33197;52.524;13.444;2023-05-13T03:44:59;9.57;;;4.03;;
47289;SDS011;33197;52.524;13.444;2023-05-13T03:47:26;11.32;;;4.03;;
47289;SDS011;33197;52.524;13.444;2023-05-13T03:49:54;12.65;;;4.57;;
47289;SDS011;33197;52.524;13.444;2023-05-13T03:52:21;5.47;;;3.72;;
47289;SDS011;33197;52.524;13.444;2023-05-13T03:54:48;9.35;;;4.05;;
47289;SDS011;33197;52.524;13.444;2023-05-13T03:57:16;10.25;;;3.65;;
47289;SDS011;33197;52.524;13.444;2023-05-13T03:59:43;12.18;;;5.05;;
47289;SDS011;33197;52.524;13.444;2023-05-13T04:02:10;7.85;;;4.40;;
47289;SDS011;33197;52.524;13.444;2023-05-13T04:04:38;6.47;;;3.85;;
47289;SDS011;33197;52.524;13.444;2023-05-13T04:07:05;9.45;;;4.88;;
47289;SDS011;33197;52.524;13.444;2023-05-13T04:09:32;10.68;;;4.10;;
47289;SDS011;33197;52.524;13.444;2023-05-13T04:11:59;7.32;;;4.28;;
47289;SDS011;33197;52.524;13.444;2023-05-13T04:14:27;9.88;;;3.70;;
47289;SDS011;33197;52.524;13.444;2023-05-13T04:16:54;7.30;;;4.65;;
47289;SDS011;33197;52.524;13.444;2023-05-13T04:19:21;7.22;;;4.07;;
47289;SDS011;33197;52.524;13.444;2023-05-13T04:21:48;7.38;;;3.78;;
47289;SDS011;33197;52.524;13.444;2023-05-13T04:24:16;9.55;;;4.25;;
47289;SDS011;33197;52.524;13.444;2023-05-13T04:26:43;7.97;;;4.03;;
47289;SDS011;33197;52.524;13.444;2023-05-13T04:29:10;10.23;;;4.32;;
47289;SDS011;33197;52.524;13.444;2023-05-13T04:31:37;7.28;;;4.38;;
47289;SDS011;33197;52.524;13.444;2023-05-13T04:34:05;10.50;;;3.70;;
47289;SDS011;33197;52.524;13.444;2023-05-13T04:36:32;13.55;;;4.00;;
47289;SDS011;33197;52.524;13.444;2023-05-13T04:38:59;11.02;;;4.05;;
47289;SDS011;33197;52.524;13.444;2023-05-13T04:41:26;7.13;;;3.60;;
47289;SDS011;33197;52.524;13.444;2023-05-13T04:43:54;6.68;;;3.78;;
47289;SDS011;33197;52.524;13.444;2023-05-13T04:46:21;5.93;;;3.92;;
47289;SDS011;33197;52.524;13.444;2023-05-13T04:48:48;10.10;;;4.43;;
47289;SDS011;33197;52.524;13.444;2023-05-13T04:51:16;11.82;;;4.63;;
47289;SDS011;33197;52.524;13.444;2023-05-13T04:53:44;10.02;;;3.80;;
47289;SDS011;33197;52.524;13.444;2023-05-13T04:56:11;10.93;;;3.88;;
47289;SDS011;33197;52.524;13.444;2023-05-13T04:58:38;11.18;;;4.20;;
47289;SDS011;33197;52.524;13.444;2023-05-13T05:01:05;10.85;;;4.20;;
47289;SDS011;33197;52.524;13.444;2023-05-13T05:03:33;8.30;;;3.92;;
47289;SDS011;33197;52.524;13.444;2023-05-13T05:06:00;11.77;;;3.92;;
47289;SDS011;33197;52.524;13.444;2023-05-13T05:08:28;6.30;;;4.28;;
47289;SDS011;33197;52.524;13.444;2023-05-13T05:10:55;8.15;;;3.65;;
47289;SDS011;33197;52.524;13.444;2023-05-13T05:13:22;8.07;;;4.50;;
47289;SDS011;33197;52.524;13.444;2023-05-13T05:15:49;10.05;;;3.92;;
47289;SDS011;33197;52.524;13.444;2023-05-13T05:18:17;8.63;;;3.85;;
47289;SDS011;33197;52.524;13.444;2023-05-13T05:20:44;9.07;;;4.18;;
47289;SDS011;33197;52.524;13.444;2023-05-13T05:23:11;9.18;;;3.53;;
47289;SDS011;33197;52.524;13.444;2023-05-13T05:25:38;10.32;;;3.65;;
47289;SDS011;33197;52.524;13.444;2023-05-13T05:28:06;8.77;;;3.53;;
47289;SDS011;33197;52.524;13.444;2023-05-13T05:30:35;11.05;;;3.80;;
47289;SDS011;33197;52.524;13.444;2023-05-13T05:33:06;9.43;;;3.55;;
47289;SDS011;33197;52.524;13.444;2023-05-13T05:35:33;8.15;;;3.88;;
47289;SDS011;33197;52.524;13.444;2023-05-13T05:38:05;8.80;;;3.58;;
47289;SDS011;33197;52.524;13.444;2023-05-13T05:40:38;5.45;;;3.17;;
47289;SDS011;33197;52.524;13.444;2023-05-13T05:43:06;6.30;;;3.15;;
47289;SDS011;33197;52.524;13.444;2023-05-13T05:45:34;13.80;;;3.80;;
47289;SDS011;33197;52.524;13.444;2023-05-13T05:48:02;7.28;;;3.00;;
47289;SDS011;33197;52.524;13.444;2023-05-13T05:50:29;12.18;;;3.80;;
47289;SDS011;33197;52.524;13.444;2023-05-13T05:52:57;5.93;;;3.05;;
47289;SDS011;33197;52.524;13.444;2023-05-13T05:58:55;5.80;;;2.85;;
47289;SDS011;33197;52.524;13.444;2023-05-13T06:01:22;5.53;;;3.33;;
47289;SDS011;33197;52.524;13.444;2023-05-13T06:03:49;5.07;;;3.35;;
47289;SDS011;33197;52.524;13.444;2023-05-13T06:06:20;12.35;;;3.53;;
47289;SDS011;33197;52.524;13.444;2023-05-13T06:08:47;5.10;;;2.90;;
47289;SDS011;33197;52.524;13.444;2023-05-13T06:11:15;7.80;;;3.55;;
47289;SDS011;33197;52.524;13.444;2023-05-13T06:13:42;7.05;;;2.72;;
47289;SDS011;33197;52.524;13.444;2023-05-13T06:16:09;5.65;;;3.50;;
47289;SDS011;33197;52.524;13.444;2023-05-13T06:18:37;5.53;;;3.30;;
47289;SDS011;33197;52.524;13.444;2023-05-13T06:21:04;5.32;;;3.38;;
47289;SDS011;33197;52.524;13.444;2023-05-13T06:23:31;7.22;;;3.42;;
47289;SDS011;33197;52.524;13.444;2023-05-13T06:25:59;11.73;;;4.15;;
47289;SDS011;33197;52.524;13.444;2023-05-13T06:28:26;4.65;;;3.08;;
47289;SDS011;33197;52.524;13.444;2023-05-13T06:30:53;5.78;;;2.83;;
47289;SDS011;33197;52.524;13.444;2023-05-13T06:33:20;7.82;;;3.78;;
47289;SDS011;33197;52.524;13.444;2023-05-13T06:35:48;7.32;;;2.83;;
47289;SDS011;33197;52.524;13.444;2023-05-13T06:38:15;4.13;;;2.42;;
47289;SDS011;33197;52.524;13.444;2023-05-13T06:40:45;7.63;;;3.45;;
47289;SDS011;33197;52.524;13.444;2023-05-13T06:43:12;6.10;;;2.97;;
47289;SDS011;33197;52.524;13.444;2023-05-13T06:45:44;12.30;;;3.70;;
47289;SDS011;33197;52.524;13.444;2023-05-13T06:48:12;4.20;;;2.53;;
47289;SDS011;33197;52.524;13.444;2023-05-13T06:50:39;8.07;;;3.22;;
47289;SDS011;33197;52.524;13.444;2023-05-13T06:53:07;7.82;;;3.45;;
47289;SDS011;33197;52.524;13.444;2023-05-13T06:55:35;6.22;;;3.17;;
47289;SDS011;33197;52.524;13.444;2023-05-13T06:58:07;4.20;;;2.70;;
47289;SDS011;33197;52.524;13.444;2023-05-13T07:00:35;5.90;;;2.58;;
47289;SDS011;33197;52.524;13.444;2023-05-13T07:03:04;6.22;;;2.80;;
47289;SDS011;33197;52.524;13.444;2023-05-13T07:05:32;7.45;;;2.75;;
47289;SDS011;33197;52.524;13.444;2023-05-13T07:08:00;4.05;;;3.00;;
47289;SDS011;33197;52.524;13.444;2023-05-13T07:10:32;8.23;;;3.28;;
47289;SDS011;33197;52.524;13.444;2023-05-13T07:13:00;3.97;;;2.22;;
47289;SDS011;33197;52.524;13.444;2023-05-13T07:15:28;3.83;;;2.70;;
47289;SDS011;33197;52.524;13.444;2023-05-13T07:17:55;10.60;;;3.17;;
47289;SDS011;33197;52.524;13.444;2023-05-13T07:20:22;9.68;;;3.17;;
47289;SDS011;33197;52.524;13.444;2023-05-13T07:22:51;6.60;;;2.70;;
47289;SDS011;33197;52.524;13.444;2023-05-13T07:25:18;7.53;;;2.42;;
47289;SDS011;33197;52.524;13.444;2023-05-13T07:27:45;4.85;;;2.45;;
47289;SDS011;33197;52.524;13.444;2023-05-13T07:30:13;11.00;;;3.63;;
47289;SDS011;33197;52.524;13.444;2023-05-13T07:32:41;8.30;;;2.75;;
47289;SDS011;33197;52.524;13.444;2023-05-13T07:35:08;7.88;;;2.55;;
47289;SDS011;33197;52.524;13.444;2023-05-13T07:37:36;3.80;;;2.47;;
47289;SDS011;33197;52.524;13.444;2023-05-13T07:40:06;9.13;;;2.70;;
47289;SDS011;33197;52.524;13.444;2023-05-13T07:42:34;7.93;;;2.80;;
47289;SDS011;33197;52.524;13.444;2023-05-13T07:45:03;6.60;;;2.20;;
47289;SDS011;33197;52.524;13.444;2023-05-13T07:47:31;6.68;;;2.92;;
47289;SDS011;33197;52.524;13.444;2023-05-13T07:49:59;6.72;;;2.15;;
47289;SDS011;33197;52.524;13.444;2023-05-13T07:52:26;6.70;;;2.17;;
47289;SDS011;33197;52.524;13.444;2023-05-13T07:54:54;8.18;;;2.47;;
47289;SDS011;33197;52.524;13.444;2023-05-13T07:57:21;6.80;;;2.80;;
47289;SDS011;33197;52.524;13.444;2023-05-13T07:59:48;11.38;;;2.70;;
47289;SDS011;33197;52.524;13.444;2023-05-13T08:02:15;5.10;;;2.63;;
47289;SDS011;33197;52.524;13.444;2023-05-13T08:04:43;7.63;;;2.95;;
47289;SDS011;33197;52.524;13.444;2023-05-13T08:07:10;2.95;;;2.00;;
47289;SDS011;33197;52.524;13.444;2023-05-13T08:09:37;9.15;;;2.70;;
47289;SDS011;33197;52.524;13.444;2023-05-13T08:12:04;5.95;;;2.28;;
47289;SDS011;33197;52.524;13.444;2023-05-13T08:14:32;5.22;;;2.20;;
47289;SDS011;33197;52.524;13.444;2023-05-13T08:16:59;9.75;;;2.50;;
47289;SDS011;33197;52.524;13.444;2023-05-13T08:19:26;5.55;;;2.70;;
47289;SDS011;33197;52.524;13.444;2023-05-13T08:21:54;5.80;;;2.80;;
47289;SDS011;33197;52.524;13.444;2023-05-13T08:24:21;7.60;;;2.03;;
47289;SDS011;33197;52.524;13.444;2023-05-13T08:26:48;4.13;;;2.42;;
47289;SDS011;33197;52.524;13.444;2023-05-13T08:29:16;8.93;;;2.92;;
47289;SDS011;33197;52.524;13.444;2023-05-13T08:31:43;7.70;;;2.97;;
47289;SDS011;33197;52.524;13.444;2023-05-13T08:34:10;9.15;;;2.67;;
47289;SDS011;33197;52.524;13.444;2023-05-13T08:36:38;11.27;;;2.25;;
47289;SDS011;33197;52.524;13.444;2023-05-13T08:39:06;5.63;;;2.33;;
47289;SDS011;33197;52.524;13.444;2023-05-13T08:41:34;6.20;;;2.50;;
47289;SDS011;33197;52.524;13.444;2023-05-13T08:44:05;6.90;;;2.03;;
47289;SDS011;33197;52.524;13.444;2023-05-13T08:46:33;7.45;;;3.00;;
47289;SDS011;33197;52.524;13.444;2023-05-13T08:49:07;8.05;;;2.35;;
47289;SDS011;33197;52.524;13.444;2023-05-13T08:51:35;5.25;;;2.85;;
47289;SDS011;33197;52.524;13.444;2023-05-13T08:54:03;5.70;;;2.63;;
47289;SDS011;33197;52.524;13.444;2023-05-13T08:56:30;4.18;;;2.55;;
47289;SDS011;33197;52.524;13.444;2023-05-13T08:58:58;4.47;;;2.10;;
47289;SDS011;33197;52.524;13.444;2023-05-13T09:01:25;5.45;;;2.28;;
47289;SDS011;33197;52.524;13.444;2023-05-13T09:03:57;5.93;;;2.50;;
47289;SDS011;33197;52.524;13.444;2023-05-13T09:06:25;3.50;;;2.03;;
47289;SDS011;33197;52.524;13.444;2023-05-13T09:08:53;9.55;;;2.55;;
47289;SDS011;33197;52.524;13.444;2023-05-13T09:11:21;4.88;;;2.35;;
47289;SDS011;33197;52.524;13.444;2023-05-13T09:13:55;6.13;;;2.45;;
47289;SDS011;33197;52.524;13.444;2023-05-13T09:16:24;6.20;;;1.95;;
47289;SDS011;33197;52.524;13.444;2023-05-13T09:18:57;8.38;;;2.50;;
47289;SDS011;33197;52.524;13.444;2023-05-13T09:21:32;11.23;;;3.30;;
47289;SDS011;33197;52.524;13.444;2023-05-13T09:24:11;4.75;;;2.08;;
47289;SDS011;33197;52.524;13.444;2023-05-13T09:26:44;5.25;;;2.40;;
47289;SDS011;33197;52.524;13.444;2023-05-13T09:31:53;11.75;;;2.35;;
47289;SDS011;33197;52.524;13.444;2023-05-13T09:34:32;8.80;;;2.40;;
47289;SDS011;33197;52.524;13.444;2023-05-13T09:37:04;6.50;;;2.58;;
47289;SDS011;33197;52.524;13.444;2023-05-13T09:39:33;6.93;;;2.45;;
47289;SDS011;33197;52.524;13.444;2023-05-13T09:42:04;8.15;;;2.60;;
47289;SDS011;33197;52.524;13.444;2023-05-13T09:44:32;4.95;;;2.25;;
47289;SDS011;33197;52.524;13.444;2023-05-13T09:46:59;5.95;;;2.30;;
47289;SDS011;33197;52.524;13.444;2023-05-13T09:49:30;5.32;;;2.17;;
47289;SDS011;33197;52.524;13.444;2023-05-13T09:51:57;5.95;;;2.10;;
47289;SDS011;33197;52.524;13.444;2023-05-13T09:54:24;3.88;;;2.03;;
47289;SDS011;33197;52.524;13.444;2023-05-13T09:56:57;7.00;;;2.10;;
47289;SDS011;33197;52.524;13.444;2023-05-13T09:59:24;4.68;;;2.15;;
47289;SDS011;33197;52.524;13.444;2023-05-13T10:01:52;9.90;;;2.40;;
47289;SDS011;33197;52.524;13.444;2023-05-13T10:04:21;8.38;;;2.00;;
47289;SDS011;33197;52.524;13.444;2023-05-13T10:06:48;6.78;;;2.25;;
47289;SDS011;33197;52.524;13.444;2023-05-13T10:09:16;7.03;;;2.38;;
47289;SDS011;33197;52.524;13.444;2023-05-13T10:11:44;17.63;;;2.83;;
47289;SDS011;33197;52.524;13.444;2023-05-13T10:14:13;10.80;;;2.20;;
47289;SDS011;33197;52.524;13.444;2023-05-13T10:16:40;3.05;;;1.85;;
47289;SDS011;33197;52.524;13.444;2023-05-13T10:19:09;4.40;;;2.33;;
47289;SDS011;33197;52.524;13.444;2023-05-13T10:21:36;6.85;;;2.13;;
47289;SDS011;33197;52.524;13.444;2023-05-13T10:24:04;6.32;;;2.30;;
47289;SDS011;33197;52.524;13.444;2023-05-13T10:26:33;8.80;;;2.22;;
47289;SDS011;33197;52.524;13.444;2023-05-13T10:29:00;8.02;;;2.33;;
47289;SDS011;33197;52.524;13.444;2023-05-13T10:31:28;3.88;;;2.05;;
47289;SDS011;33197;52.524;13.444;2023-05-13T10:33:55;6.40;;;2.42;;
47289;SDS011;33197;52.524;13.444;2023-05-13T10:44:34;4.95;;;2.60;;
47289;SDS011;33197;52.524;13.444;2023-05-13T10:47:02;6.50;;;2.15;;
47289;SDS011;33197;52.524;13.444;2023-05-13T10:49:32;5.55;;;2.20;;
47289;SDS011;33197;52.524;13.444;2023-05-13T10:52:04;6.70;;;1.70;;
47289;SDS011;33197;52.524;13.444;2023-05-13T10:54:39;5.18;;;1.90;;
47289;SDS011;33197;52.524;13.444;2023-05-13T10:57:08;2.63;;;1.67;;
47289;SDS011;33197;52.524;13.444;2023-05-13T10:59:35;10.57;;;2.15;;
47289;SDS011;33197;52.524;13.444;2023-05-13T11:02:19;7.90;;;2.00;;
47289;SDS011;33197;52.524;13.444;2023-05-13T11:04:57;7.60;;;2.33;;
47289;SDS011;33197;52.524;13.444;2023-05-13T11:07:28;3.50;;;1.83;;
47289;SDS011;33197;52.524;13.444;2023-05-13T11:09:56;9.10;;;2.05;;
47289;SDS011;33197;52.524;13.444;2023-05-13T11:12:25;6.57;;;1.90;;
47289;SDS011;33197;52.524;13.444;2023-05-13T11:14:55;4.90;;;2.28;;
47289;SDS011;33197;52.524;13.444;2023-05-13T11:17:22;5.20;;;2.00;;
47289;SDS011;33197;52.524;13.444;2023-05-13T11:19:50;3.47;;;1.95;;
47289;SDS011;33197;52.524;13.444;2023-05-13T11:22:19;9.60;;;2.22;;
47289;SDS011;33197;52.524;13.444;2023-05-13T11:27:47;9.10;;;2.28;;
47289;SDS011;33197;52.524;13.444;2023-05-13T11:30:21;2.88;;;1.75;;
47289;SDS011;33197;52.524;13.444;2023-05-13T11:35:19;4.30;;;1.80;;
47289;SDS011;33197;52.524;13.444;2023-05-13T11:37:47;5.95;;;2.22;;
47289;SDS011;33197;52.524;13.444;2023-05-13T11:40:28;3.25;;;2.10;;
47289;SDS011;33197;52.524;13.444;2023-05-13T11:42:57;3.42;;;1.98;;
47289;SDS011;33197;52.524;13.444;2023-05-13T11:45:24;8.98;;;1.98;;
47289;SDS011;33197;52.524;13.444;2023-05-13T11:47:53;5.20;;;1.80;;
47289;SDS011;33197;52.524;13.444;2023-05-13T11:50:22;3.80;;;2.22;;
47289;SDS011;33197;52.524;13.444;2023-05-13T11:52:56;10.05;;;2.38;;
47289;SDS011;33197;52.524;13.444;2023-05-13T11:55:31;7.63;;;2.40;;
47289;SDS011;33197;52.524;13.444;2023-05-13T11:58:00;3.42;;;1.90;;
47289;SDS011;33197;52.524;13.444;2023-05-13T12:00:33;4.95;;;1.80;;
47289;SDS011;33197;52.524;13.444;2023-05-13T12:03:04;7.15;;;1.75;;
47289;SDS011;33197;52.524;13.444;2023-05-13T12:05:36;6.30;;;2.28;;
47289;SDS011;33197;52.524;13.444;2023-05-13T12:08:05;5.50;;;2.47;;
47289;SDS011;33197;52.524;13.444;2023-05-13T12:10:33;8.57;;;2.83;;
47289;SDS011;33197;52.524;13.444;2023-05-13T12:13:01;4.68;;;2.05;;
47289;SDS011;33197;52.524;13.444;2023-05-13T12:15:28;11.10;;;1.98;;
47289;SDS011;33197;52.524;13.444;2023-05-13T12:17:56;14.85;;;2.38;;
47289;SDS011;33197;52.524;13.444;2023-05-13T12:20:24;4.82;;;1.77;;
47289;SDS011;33197;52.524;13.444;2023-05-13T12:22:52;13.25;;;2.45;;
47289;SDS011;33197;52.524;13.444;2023-05-13T12:25:36;5.32;;;2.10;;
47289;SDS011;33197;52.524;13.444;2023-05-13T12:28:06;6.57;;;2.10;;
47289;SDS011;33197;52.524;13.444;2023-05-13T12:30:35;7.55;;;2.00;;
47289;SDS011;33197;52.524;13.444;2023-05-13T12:33:03;8.85;;;2.33;;
47289;SDS011;33197;52.524;13.444;2023-05-13T12:35:31;7.82;;;3.10;;
47289;SDS011;33197;52.524;13.444;2023-05-13T12:38:02;13.10;;;2.80;;
47289;SDS011;33197;52.524;13.444;2023-05-13T12:40:30;4.65;;;2.10;;
47289;SDS011;33197;52.524;13.444;2023-05-13T12:42:58;7.53;;;2.42;;
47289;SDS011;33197;52.524;13.444;2023-05-13T12:45:30;8.00;;;2.25;;
47289;SDS011;33197;52.524;13.444;2023-05-13T12:47:58;5.50;;;2.03;;
47289;SDS011;33197;52.524;13.444;2023-05-13T12:50:26;7.80;;;2.13;;
47289;SDS011;33197;52.524;13.444;2023-05-13T12:52:53;11.00;;;2.17;;
47289;SDS011;33197;52.524;13.444;2023-05-13T12:55:23;5.03;;;2.30;;
47289;SDS011;33197;52.524;13.444;2023-05-13T12:57:58;9.02;;;2.45;;
47289;SDS011;33197;52.524;13.444;2023-05-13T13:04:44;9.43;;;2.80;;
47289;SDS011;33197;52.524;13.444;2023-05-13T13:07:12;7.40;;;2.08;;
47289;SDS011;33197;52.524;13.444;2023-05-13T13:09:40;9.48;;;2.55;;
47289;SDS011;33197;52.524;13.444;2023-05-13T13:12:07;9.40;;;2.17;;
47289;SDS011;33197;52.524;13.444;2023-05-13T13:14:34;7.30;;;2.15;;
47289;SDS011;33197;52.524;13.444;2023-05-13T13:17:02;9.15;;;3.08;;
47289;SDS011;33197;52.524;13.444;2023-05-13T13:19:29;14.75;;;2.75;;
47289;SDS011;33197;52.524;13.444;2023-05-13T13:21:57;7.85;;;2.28;;
47289;SDS011;33197;52.524;13.444;2023-05-13T13:24:24;7.57;;;2.10;;
47289;SDS011;33197;52.524;13.444;2023-05-13T13:26:51;11.18;;;2.90;;
47289;SDS011;33197;52.524;13.444;2023-05-13T13:29:20;7.53;;;2.10;;
47289;SDS011;33197;52.524;13.444;2023-05-13T13:31:47;4.32;;;1.92;;
47289;SDS011;33197;52.524;13.444;2023-05-13T13:34:15;6.13;;;3.13;;
47289;SDS011;33197;52.524;13.444;2023-05-13T13:36:42;9.32;;;2.45;;
47289;SDS011;33197;52.524;13.444;2023-05-13T13:39:09;5.25;;;2.13;;
47289;SDS011;33197;52.524;13.444;2023-05-13T13:41:36;3.95;;;2.10;;
47289;SDS011;33197;52.524;13.444;2023-05-13T13:44:04;5.00;;;2.00;;
47289;SDS011;33197;52.524;13.444;2023-05-13T13:46:31;6.25;;;2.10;;
47289;SDS011;33197;52.524;13.444;2023-05-13T13:48:58;8.75;;;1.98;;
47289;SDS011;33197;52.524;13.444;2023-05-13T13:51:28;3.72;;;2.20;;
47289;SDS011;33197;52.524;13.444;2023-05-13T13:53:55;7.22;;;2.42;;
47289;SDS011;33197;52.524;13.444;2023-05-13T13:56:22;2.97;;;2.20;;
47289;SDS011;33197;52.524;13.444;2023-05-13T13:58:50;7.70;;;2.75;;
47289;SDS011;33197;52.524;13.444;2023-05-13T14:01:17;3.35;;;2.05;;
47289;SDS011;33197;52.524;13.444;2023-05-13T14:03:48;6.30;;;2.22;;
47289;SDS011;33197;52.524;13.444;2023-05-13T14:06:16;6.25;;;2.20;;
47289;SDS011;33197;52.524;13.444;2023-05-13T14:08:43;11.13;;;2.33;;
47289;SDS011;33197;52.524;13.444;2023-05-13T14:11:10;7.43;;;2.47;;
47289;SDS011;33197;52.524;13.444;2023-05-13T14:13:37;7.80;;;3.42;;
47289;SDS011;33197;52.524;13.444;2023-05-13T14:16:05;3.65;;;2.85;;
47289;SDS011;33197;52.524;13.444;2023-05-13T14:18:32;4.38;;;2.60;;
47289;SDS011;33197;52.524;13.444;2023-05-13T14:20:59;9.57;;;3.10;;
47289;SDS011;33197;52.524;13.444;2023-05-13T14:23:27;6.35;;;2.85;;
47289;SDS011;33197;52.524;13.444;2023-05-13T14:25:54;13.82;;;2.65;;
47289;SDS011;33197;52.524;13.444;2023-05-13T14:28:21;6.93;;;2.67;;
47289;SDS011;33197;52.524;13.444;2023-05-13T14:30:51;9.68;;;2.58;;
47289;SDS011;33197;52.524;13.444;2023-05-13T14:33:18;6.72;;;2.80;;
47289;SDS011;33197;52.524;13.444;2023-05-13T14:35:45;7.75;;;2.65;;
47289;SDS011;33197;52.524;13.444;2023-05-13T14:38:12;7.50;;;3.25;;
47289;SDS011;33197;52.524;13.444;2023-05-13T14:40:39;5.00;;;3.38;;
47289;SDS011;33197;52.524;13.444;2023-05-13T14:43:07;9.80;;;4.32;;
47289;SDS011;33197;52.524;13.444;2023-05-13T14:45:34;7.25;;;4.60;;
47289;SDS011;33197;52.524;13.444;2023-05-13T14:48:02;5.80;;;5.30;;
47289;SDS011;33197;52.524;13.444;2023-05-13T14:50:29;7.57;;;5.95;;
47289;SDS011;33197;52.524;13.444;2023-05-13T14:52:56;9.02;;;8.43;;
47289;SDS011;33197;52.524;13.444;2023-05-13T14:55:23;11.95;;;10.80;;
47289;SDS011;33197;52.524;13.444;2023-05-13T14:57:50;14.95;;;13.75;;
47289;SDS011;33197;52.524;13.444;2023-05-13T15:00:18;18.17;;;16.73;;
47289;SDS011;33197;52.524;13.444;2023-05-13T15:02:45;22.30;;;21.05;;
47289;SDS011;33197;52.524;13.444;2023-05-13T15:05:13;25.13;;;23.77;;
47289;SDS011;33197;52.524;13.444;2023-05-13T15:07:40;26.83;;;25.40;;
47289;SDS011;33197;52.524;13.444;2023-05-13T15:10:07;26.63;;;25.02;;
47289;SDS011;33197;52.524;13.444;2023-05-13T15:12:35;30.55;;;28.65;;
47289;SDS011;33197;52.524;13.444;2023-05-13T15:15:02;32.38;;;30.58;;
47289;SDS011;33197;52.524;13.444;2023-05-13T15:17:30;38.00;;;36.00;;
47289;SDS011;33197;52.524;13.444;2023-05-13T15:19:57;37.20;;;35.08;;
47289;SDS011;33197;52.524;13.444;2023-05-13T15:22:24;45.35;;;42.65;;